createdAt,value
2023-02-27T00:01:34.004Z,65.10
2023-02-27T00:04:37.006Z,65.20
2023-02-27T00:07:41.738Z,65.40
2023-02-27T00:10:44.834Z,65.40
2023-02-27T00:13:48.229Z,65.60
2023-02-27T00:16:51.417Z,65.80
2023-02-27T00:19:54.817Z,66.10
2023-02-27T00:22:59.674Z,66.30
2023-02-27T00:26:02.755Z,66.20
2023-02-27T00:29:06.283Z,66.40
2023-02-27T00:32:09.515Z,66.30
2023-02-27T00:35:14.054Z,66.40
2023-02-27T00:38:18.952Z,66.50
2023-02-27T00:41:21.987Z,66.60
2023-02-27T00:44:25.448Z,66.70
2023-02-27T00:47:28.514Z,66.80
2023-02-27T00:50:32.058Z,66.80
2023-02-27T00:53:36.545Z,66.90
2023-02-27T00:56:42.696Z,67.00
2023-02-27T00:59:46.578Z,67.10
2023-02-27T01:02:49.901Z,67.20
2023-02-27T01:05:53.307Z,67.20
2023-02-27T01:08:57.939Z,67.30
2023-02-27T01:12:00.951Z,67.50
2023-02-27T01:15:04.234Z,67.70
2023-02-27T01:18:07.338Z,67.70
2023-02-27T01:21:10.422Z,67.70
2023-02-27T01:24:14.839Z,67.80
2023-02-27T01:27:18.101Z,67.80
2023-02-27T01:30:21.444Z,67.90
2023-02-27T01:33:24.538Z,68.00
2023-02-27T01:36:27.709Z,68.10
2023-02-27T01:39:37.584Z,68.20
2023-02-27T01:42:40.614Z,68.20
2023-02-27T01:45:47.829Z,68.30
2023-02-27T01:48:54.565Z,68.40
2023-02-27T01:52:03.244Z,68.50
2023-02-27T01:55:12.659Z,68.60
2023-02-27T01:58:16.881Z,68.60
2023-02-27T02:01:21.327Z,68.80
2023-02-27T02:04:29.349Z,68.90
2023-02-27T02:07:33.392Z,69.00
2023-02-27T02:10:40.966Z,69.00
2023-02-27T02:13:44.141Z,69.00
2023-02-27T02:17:01.310Z,69.00
2023-02-27T02:20:43.667Z,69.00
2023-02-27T02:24:37.563Z,69.10
2023-02-27T02:27:54.643Z,69.20
2023-02-27T02:31:34.046Z,69.20
2023-02-27T02:35:13.572Z,69.20
2023-02-27T02:38:48.759Z,69.20
2023-02-27T02:42:03.896Z,69.30
2023-02-27T02:45:17.248Z,69.30
2023-02-27T02:48:27.360Z,69.30
2023-02-27T02:51:36.963Z,69.30
2023-02-27T02:54:47.292Z,69.40
2023-02-27T02:57:54.152Z,69.40
2023-02-27T03:01:03.319Z,69.60
2023-02-27T03:04:10.516Z,69.50
2023-02-27T03:07:22.663Z,69.50
2023-02-27T03:10:31.679Z,69.60
2023-02-27T03:13:39.466Z,69.60
2023-02-27T03:16:45.473Z,69.60
2023-02-27T03:19:55.105Z,69.70
2023-02-27T03:23:04.926Z,69.50
2023-02-27T03:26:11.015Z,69.80
2023-02-27T03:29:18.076Z,69.80
2023-02-27T03:32:30.648Z,69.90
2023-02-27T03:35:44.645Z,69.80
2023-02-27T03:38:53.047Z,69.90
2023-02-27T03:42:12.376Z,69.60
2023-02-27T03:45:21.333Z,69.60
2023-02-27T03:48:27.731Z,69.70
2023-02-27T03:51:31.597Z,69.70
2023-02-27T03:54:40.037Z,69.70
2023-02-27T03:57:47.498Z,69.80
2023-02-27T04:00:51.110Z,69.90
2023-02-27T04:04:02.492Z,69.90
2023-02-27T04:07:24.457Z,70.00
2023-02-27T04:10:46.593Z,69.90
2023-02-27T04:14:05.459Z,70.10
2023-02-27T04:17:18.728Z,70.00
2023-02-27T04:20:44.687Z,70.10
2023-02-27T04:23:56.323Z,70.30
2023-02-27T04:27:11.065Z,70.20
2023-02-27T04:30:27.101Z,70.20
2023-02-27T04:33:43.750Z,70.20
2023-02-27T04:36:52.517Z,70.30
2023-02-27T04:40:02.040Z,70.30
2023-02-27T04:43:09.878Z,70.40
2023-02-27T04:46:17.585Z,70.50
2023-02-27T04:49:24.286Z,70.50
2023-02-27T04:52:33.113Z,70.50
2023-02-27T04:55:40.773Z,70.50
2023-02-27T04:58:47.956Z,70.50
2023-02-27T05:01:57.248Z,70.60
2023-02-27T05:05:04.395Z,70.70
2023-02-27T05:08:13.652Z,70.70
2023-02-27T05:11:22.556Z,70.80
2023-02-27T05:14:33.182Z,70.80
2023-02-27T05:17:46.502Z,70.90
2023-02-27T05:20:58.886Z,71.10
2023-02-27T05:24:12.427Z,71.10
2023-02-27T05:27:23.645Z,71.60
2023-02-27T05:30:33.402Z,71.60
2023-02-27T05:33:44.615Z,71.80
2023-02-27T05:36:52.858Z,71.70
2023-02-27T05:39:56.082Z,71.80
2023-02-27T05:43:04.614Z,71.70
2023-02-27T05:46:12.564Z,71.80
2023-02-27T05:49:20.259Z,71.90
2023-02-27T05:52:26.022Z,72.00
2023-02-27T05:55:33.778Z,72.00
2023-02-27T05:58:39.972Z,71.90
2023-02-27T06:01:44.654Z,71.90
2023-02-27T06:04:50.585Z,71.90
2023-02-27T06:07:54.002Z,72.20
2023-02-27T06:10:57.136Z,72.10
2023-02-27T06:14:03.332Z,72.00
2023-02-27T06:17:06.317Z,72.20
2023-02-27T06:20:12.497Z,72.40
2023-02-27T06:23:15.744Z,72.30
2023-02-27T06:26:18.829Z,72.40
2023-02-27T06:29:21.843Z,72.30
2023-02-27T06:32:26.474Z,72.50
2023-02-27T06:35:31.080Z,72.50
2023-02-27T06:38:34.240Z,72.50
2023-02-27T06:41:37.261Z,72.50
2023-02-27T06:44:40.579Z,72.70
2023-02-27T06:47:43.915Z,72.70
2023-02-27T06:50:52.846Z,72.60
2023-02-27T06:53:56.054Z,72.70
2023-02-27T06:56:59.001Z,72.60
2023-02-27T07:00:02.136Z,72.50
2023-02-27T07:03:05.268Z,72.50
2023-02-27T07:06:11.150Z,72.30
2023-02-27T07:09:14.103Z,72.20
2023-02-27T07:12:17.409Z,72.20
2023-02-27T07:15:20.554Z,72.20
2023-02-27T07:18:24.928Z,72.10
2023-02-27T07:21:29.434Z,71.90
2023-02-27T07:24:32.787Z,71.60
2023-02-27T07:27:35.878Z,71.80
2023-02-27T07:30:39.039Z,71.60
2023-02-27T07:33:42.111Z,71.60
2023-02-27T07:36:46.610Z,71.90
2023-02-27T07:39:49.681Z,72.00
2023-02-27T07:42:53.316Z,71.80
2023-02-27T07:45:56.483Z,72.00
2023-02-27T07:48:59.504Z,71.80
2023-02-27T07:52:03.928Z,71.60
2023-02-27T07:55:08.244Z,71.60
2023-02-27T07:58:11.277Z,71.40
2023-02-27T08:01:14.319Z,71.10
2023-02-27T08:04:17.337Z,71.00
2023-02-27T08:07:21.634Z,70.80
2023-02-27T08:10:24.928Z,70.50
2023-02-27T08:13:59.006Z,70.40
2023-02-27T08:16:51.958Z,70.20
2023-02-27T08:19:54.903Z,70.30
2023-02-27T08:22:59.718Z,70.20
2023-02-27T08:26:03.021Z,70.00
2023-02-27T08:29:06.123Z,69.70
2023-02-27T08:32:11.444Z,69.80
2023-02-27T08:35:14.795Z,69.20
2023-02-27T08:38:19.239Z,69.00
2023-02-27T08:41:22.893Z,68.60
2023-02-27T08:44:26.345Z,67.90
2023-02-27T08:47:29.395Z,68.50
2023-02-27T08:50:32.489Z,68.60
2023-02-27T08:53:36.909Z,68.30
2023-02-27T08:56:40.070Z,68.30
2023-02-27T08:59:43.161Z,68.20
2023-02-27T09:02:46.325Z,67.40
2023-02-27T09:05:50.290Z,67.20
2023-02-27T09:08:54.854Z,66.20
2023-02-27T09:11:57.935Z,65.10
2023-02-27T09:15:01.149Z,65.80
2023-02-27T09:18:06.655Z,65.50
2023-02-27T09:21:12.392Z,65.10
2023-02-27T09:24:20.399Z,64.60
2023-02-27T09:27:24.642Z,64.10
2023-02-27T09:30:27.905Z,64.70
2023-02-27T09:33:31.462Z,64.40
2023-02-27T09:36:35.061Z,64.30
2023-02-27T09:39:39.455Z,64.40
2023-02-27T09:42:46.489Z,64.40
2023-02-27T09:45:54.380Z,63.70
2023-02-27T09:49:00.208Z,63.70
2023-02-27T09:52:03.715Z,63.10
2023-02-27T09:55:15.382Z,63.20
2023-02-27T09:58:32.230Z,63.10
2023-02-27T10:01:41.896Z,62.50
2023-02-27T10:04:52.036Z,62.20
2023-02-27T10:08:04.448Z,61.80
2023-02-27T10:11:12.129Z,61.70
2023-02-27T10:14:27.044Z,61.00
2023-02-27T10:17:35.810Z,61.00
2023-02-27T10:20:44.387Z,60.10
2023-02-27T10:23:54.533Z,59.30
2023-02-27T10:27:01.005Z,58.00
2023-02-27T10:30:28.535Z,58.20
2023-02-27T10:33:37.205Z,58.20
2023-02-27T10:36:41.077Z,57.30
2023-02-27T10:39:49.361Z,57.50
2023-02-27T10:42:55.908Z,57.10
2023-02-27T10:46:02.927Z,57.70
2023-02-27T10:49:16.888Z,57.70
2023-02-27T10:52:21.721Z,56.80
2023-02-27T10:55:27.485Z,56.20
2023-02-27T10:58:35.358Z,55.20
2023-02-27T11:01:47.049Z,54.60
2023-02-27T11:04:53.955Z,54.30
2023-02-27T11:07:58.301Z,54.00
2023-02-27T11:11:04.449Z,53.50
2023-02-27T11:14:29.294Z,53.40
2023-02-27T11:17:34.729Z,53.70
2023-02-27T11:20:43.379Z,53.50
2023-02-27T11:23:55.862Z,53.10
2023-02-27T11:27:00.653Z,53.50
2023-02-27T11:30:09.360Z,53.30
2023-02-27T11:33:20.984Z,52.30
2023-02-27T11:36:38.728Z,51.40
2023-02-27T11:39:50.701Z,51.60
2023-02-27T11:42:57.164Z,51.80
2023-02-27T11:46:32.914Z,51.40
2023-02-27T11:49:35.928Z,50.70
2023-02-27T11:52:46.843Z,49.60
2023-02-27T11:55:50.967Z,50.80
2023-02-27T11:59:02.663Z,51.40
2023-02-27T12:02:16.923Z,51.80
2023-02-27T12:05:22.706Z,51.90
2023-02-27T12:08:35.151Z,51.90
2023-02-27T12:11:43.192Z,51.60
2023-02-27T12:14:54.009Z,51.50
2023-02-27T12:18:08.052Z,51.60
2023-02-27T12:21:14.468Z,52.00
2023-02-27T12:24:22.445Z,51.80
2023-02-27T12:27:29.183Z,51.70
2023-02-27T12:30:37.621Z,52.80
2023-02-27T12:33:46.752Z,53.30
2023-02-27T12:36:49.855Z,51.50
2023-02-27T12:39:55.429Z,50.50
2023-02-27T12:43:11.130Z,49.70
2023-02-27T12:46:32.288Z,49.20
2023-02-27T12:49:44.002Z,48.90
2023-02-27T12:53:00.794Z,49.40
2023-02-27T12:56:08.097Z,48.90
2023-02-27T12:59:23.202Z,49.50
2023-02-27T13:02:40.320Z,48.80
2023-02-27T13:05:49.890Z,47.80
2023-02-27T13:09:07.210Z,47.10
2023-02-27T13:12:19.558Z,46.50
2023-02-27T13:15:29.085Z,46.90
2023-02-27T13:18:40.620Z,47.10
2023-02-27T13:21:51.579Z,47.60
2023-02-27T13:24:57.931Z,48.40
2023-02-27T13:28:04.116Z,48.40
2023-02-27T13:31:11.028Z,48.50
2023-02-27T13:34:21.212Z,48.90
2023-02-27T13:37:25.740Z,48.30
2023-02-27T13:40:35.601Z,48.60
2023-02-27T13:43:51.870Z,48.10
2023-02-27T13:46:56.152Z,47.60
2023-02-27T13:50:01.486Z,48.00
2023-02-27T13:53:17.342Z,48.30
2023-02-27T13:56:23.347Z,47.50
2023-02-27T13:59:30.013Z,47.50
2023-02-27T14:02:56.394Z,46.60
2023-02-27T14:06:06.320Z,46.60
2023-02-27T14:09:15.324Z,45.90
2023-02-27T14:12:42.598Z,45.70
2023-02-27T14:15:54.666Z,45.30
2023-02-27T14:18:58.880Z,45.70
2023-02-27T14:22:03.367Z,45.30
2023-02-27T14:25:21.976Z,46.30
2023-02-27T14:28:30.866Z,46.30
2023-02-27T14:31:36.473Z,46.50
2023-02-27T14:34:42.564Z,46.70
2023-02-27T14:37:45.771Z,46.90
2023-02-27T14:41:10.042Z,47.30
2023-02-27T14:44:20.212Z,47.00
2023-02-27T14:47:30.177Z,47.20
2023-02-27T14:50:37.283Z,47.70
2023-02-27T14:53:40.739Z,47.50
2023-02-27T14:56:55.017Z,48.10
2023-02-27T14:59:58.088Z,48.20
2023-02-27T15:03:01.821Z,48.60
2023-02-27T15:06:14.102Z,49.00
2023-02-27T15:09:24.330Z,49.10
2023-02-27T15:12:29.861Z,49.40
2023-02-27T15:15:33.021Z,49.20
2023-02-27T15:18:40.541Z,49.60
2023-02-27T15:21:46.939Z,49.60
2023-02-27T15:24:50.715Z,50.20
2023-02-27T15:27:56.161Z,50.30
2023-02-27T15:30:59.266Z,50.40
2023-02-27T15:34:05.496Z,50.20
2023-02-27T15:37:08.544Z,50.10
2023-02-27T15:40:18.484Z,50.10
2023-02-27T15:43:23.592Z,50.40
2023-02-27T15:46:27.343Z,50.30
2023-02-27T15:49:30.475Z,50.00
2023-02-27T15:52:39.955Z,49.90
2023-02-27T15:55:46.014Z,49.90
2023-02-27T15:58:54.423Z,50.30
2023-02-27T16:01:57.538Z,50.50
2023-02-27T16:05:00.719Z,50.60
2023-02-27T16:08:05.889Z,50.50
2023-02-27T16:11:09.016Z,50.70
2023-02-27T16:14:42.094Z,50.90
2023-02-27T16:17:55.612Z,51.10
2023-02-27T16:21:11.245Z,51.40
2023-02-27T16:24:21.243Z,51.50
2023-02-27T16:27:26.381Z,51.50
2023-02-27T16:30:30.957Z,51.70
2023-02-27T16:33:36.790Z,51.60
2023-02-27T16:36:41.191Z,51.70
2023-02-27T16:39:44.217Z,51.70
2023-02-27T16:42:48.054Z,51.70
2023-02-27T16:45:52.923Z,51.50
2023-02-27T16:49:00.738Z,51.70
2023-02-27T16:52:09.119Z,51.50
2023-02-27T16:55:14.112Z,51.90
2023-02-27T16:58:17.664Z,51.90
2023-02-27T17:01:22.119Z,52.10
2023-02-27T17:04:26.368Z,52.40
2023-02-27T17:07:30.560Z,52.50
2023-02-27T17:10:34.687Z,52.60
2023-02-27T17:13:38.033Z,52.80
2023-02-27T17:16:42.903Z,52.60
2023-02-27T17:19:46.373Z,52.70
2023-02-27T17:22:49.406Z,52.70
2023-02-27T17:30:13.111Z,53.00
2023-02-27T17:33:18.574Z,53.20
2023-02-27T17:36:23.433Z,53.50
2023-02-27T17:39:26.498Z,53.50
2023-02-27T17:42:30.894Z,53.40
2023-02-27T17:45:33.970Z,53.50
2023-02-27T17:48:38.621Z,53.40
2023-02-27T17:51:41.663Z,53.60
2023-02-27T17:54:44.938Z,53.60
2023-02-27T17:57:48.239Z,53.70
2023-02-27T18:00:51.475Z,54.00
2023-02-27T18:03:56.431Z,54.20
2023-02-27T18:07:00.042Z,54.30
2023-02-27T18:10:03.056Z,54.50
2023-02-27T18:13:06.248Z,54.80
2023-02-27T18:16:10.350Z,54.90
2023-02-27T18:19:15.018Z,55.00
2023-02-27T18:22:18.070Z,55.10
2023-02-27T18:25:21.264Z,55.10
2023-02-27T18:28:24.372Z,55.20
2023-02-27T18:31:30.071Z,55.30
2023-02-27T18:34:34.430Z,55.50
2023-02-27T18:37:37.515Z,55.70
2023-02-27T18:40:40.568Z,55.90
2023-02-27T18:43:44.304Z,56.20
2023-02-27T18:46:47.522Z,56.10
2023-02-27T18:49:51.998Z,56.00
2023-02-27T18:52:56.069Z,56.10
2023-02-27T18:56:01.594Z,56.00
2023-02-27T18:59:06.642Z,56.10
2023-02-27T19:02:15.384Z,56.20
2023-02-27T19:05:20.310Z,56.40
2023-02-27T19:08:24.978Z,56.60
2023-02-27T19:11:33.043Z,56.60
2023-02-27T19:14:36.194Z,56.60
2023-02-27T19:17:39.689Z,56.70
2023-02-27T19:20:44.203Z,56.80
2023-02-27T19:23:47.232Z,57.00
2023-02-27T19:26:52.448Z,57.20
2023-02-27T19:29:56.461Z,57.20
2023-02-27T19:32:59.711Z,57.20
2023-02-27T19:36:08.157Z,57.30
2023-02-27T19:39:12.312Z,57.50
2023-02-27T19:42:15.512Z,57.50
2023-02-27T19:45:19.050Z,57.70
2023-02-27T19:48:22.144Z,57.70
2023-02-27T19:51:27.429Z,57.80
2023-02-27T19:54:31.018Z,57.90
2023-02-27T19:57:35.753Z,58.20
2023-02-27T20:00:38.824Z,58.20
2023-02-27T20:03:43.818Z,58.40
2023-02-27T20:06:52.929Z,58.50
2023-02-27T20:09:56.084Z,58.60
2023-02-27T20:13:01.824Z,58.80
2023-02-27T20:16:07.755Z,58.90
2023-02-27T20:19:15.066Z,58.90
2023-02-27T20:22:21.425Z,59.00
2023-02-27T20:25:24.457Z,59.10
2023-02-27T20:28:28.485Z,59.20
2023-02-27T20:31:33.277Z,59.30
2023-02-27T20:34:36.577Z,59.30
2023-02-27T20:37:42.314Z,59.40
2023-02-27T20:40:45.328Z,59.50
2023-02-27T20:43:48.541Z,59.50
2023-02-27T20:46:51.609Z,59.40
2023-02-27T20:49:54.900Z,59.50
2023-02-27T20:52:59.388Z,59.60
2023-02-27T20:56:02.637Z,59.60
2023-02-27T20:59:08.035Z,59.60
2023-02-27T21:02:11.811Z,59.70
2023-02-27T21:05:15.296Z,59.90
2023-02-27T21:08:20.004Z,60.00
2023-02-27T21:11:27.280Z,60.10
2023-02-27T21:14:30.593Z,60.20
2023-02-27T21:17:33.742Z,60.30
2023-02-27T21:20:36.751Z,60.30
2023-02-27T21:23:43.291Z,60.50
2023-02-27T21:26:46.456Z,60.60
2023-02-27T21:29:49.882Z,60.50
2023-02-27T21:32:53.202Z,60.70
2023-02-27T21:35:56.290Z,60.80
2023-02-27T21:39:02.817Z,60.70
2023-02-27T21:42:06.774Z,60.70
2023-02-27T21:45:11.527Z,60.80
2023-02-27T21:48:16.089Z,61.10
2023-02-27T21:51:32.957Z,61.10
2023-02-27T21:54:43.196Z,61.20
2023-02-27T21:57:46.213Z,61.50
2023-02-27T22:00:50.123Z,61.60
2023-02-27T22:03:54.468Z,61.80
2023-02-27T22:06:57.477Z,61.70
2023-02-27T22:10:01.927Z,61.60
2023-02-27T22:13:04.970Z,61.80
2023-02-27T22:16:10.002Z,61.70
2023-02-27T22:19:19.674Z,61.90
2023-02-27T22:22:23.383Z,62.00
2023-02-27T22:25:27.820Z,62.20
2023-02-27T22:28:32.624Z,62.30
2023-02-27T22:31:37.379Z,62.40
2023-02-27T22:34:40.482Z,62.50
2023-02-27T22:37:43.443Z,62.50
2023-02-27T22:40:48.086Z,62.60
2023-02-27T22:43:51.525Z,62.70
2023-02-27T22:46:56.948Z,62.90
2023-02-27T22:49:59.981Z,63.10
2023-02-27T22:53:02.998Z,63.20
2023-02-27T22:56:09.313Z,63.30
2023-02-27T22:59:12.543Z,63.60
2023-02-27T23:02:16.189Z,63.50
2023-02-27T23:05:19.256Z,63.70
2023-02-27T23:08:22.258Z,63.90
2023-02-27T23:11:27.311Z,64.00
2023-02-27T23:14:30.552Z,64.00
2023-02-27T23:17:33.596Z,64.00
2023-02-27T23:20:38.700Z,64.30
2023-02-27T23:23:42.070Z,64.10
2023-02-27T23:26:48.481Z,64.10
2023-02-27T23:29:51.495Z,64.20
2023-02-27T23:32:54.594Z,64.00
2023-02-27T23:35:58.547Z,64.10
2023-02-27T23:39:02.813Z,64.10
2023-02-27T23:42:07.371Z,64.10
2023-02-27T23:45:11.514Z,64.10
2023-02-27T23:48:15.121Z,64.30
2023-02-27T23:51:18.273Z,64.30
2023-02-27T23:54:21.320Z,64.40
2023-02-27T23:57:26.056Z,64.50
